createdAt,value
2023-02-01T00:01:24.062Z,98911.50
2023-02-01T00:03:52.199Z,98914.48
2023-02-01T00:06:23.411Z,98911.24
2023-02-01T00:08:55.700Z,98910.83
2023-02-01T00:11:24.372Z,98902.00
2023-02-01T00:13:53.003Z,98895.02
2023-02-01T00:16:26.837Z,98894.42
2023-02-01T00:19:15.224Z,98895.95
2023-02-01T00:21:44.956Z,98893.89
2023-02-01T00:24:13.239Z,98892.00
2023-02-01T00:26:43.306Z,98889.52
2023-02-01T00:29:19.432Z,98891.06
2023-02-01T00:31:48.180Z,98892.83
2023-02-01T00:34:17.307Z,98890.00
2023-02-01T00:36:46.301Z,98887.02
2023-02-01T00:39:14.438Z,98888.41
2023-02-01T00:41:42.624Z,98881.06
2023-02-01T00:44:11.345Z,98884.72
2023-02-01T00:46:39.418Z,98884.63
2023-02-01T00:49:08.467Z,98883.55
2023-02-01T00:51:38.005Z,98887.05
2023-02-01T00:54:06.689Z,98890.05
2023-02-01T00:56:34.864Z,98891.75
2023-02-01T00:59:02.820Z,98893.80
2023-02-01T01:01:31.491Z,98892.95
2023-02-01T01:04:00.248Z,98894.09
2023-02-01T01:06:31.099Z,98893.30
2023-02-01T01:09:03.036Z,98893.52
2023-02-01T01:11:33.431Z,98896.55
2023-02-01T01:14:02.918Z,98894.92
2023-02-01T01:16:32.108Z,98897.38
2023-02-01T01:19:00.273Z,98896.75
2023-02-01T01:21:28.980Z,98897.52
2023-02-01T01:23:57.400Z,98896.43
2023-02-01T01:26:27.758Z,98901.44
2023-02-01T01:28:57.642Z,98896.15
2023-02-01T01:31:26.485Z,98897.42
2023-02-01T01:33:56.046Z,98894.55
2023-02-01T01:36:24.982Z,98895.29
2023-02-01T01:38:53.824Z,98896.55
2023-02-01T01:41:24.012Z,98894.44
2023-02-01T01:43:55.784Z,98895.91
2023-02-01T01:46:30.170Z,98897.59
2023-02-01T01:49:02.782Z,98895.19
2023-02-01T01:51:31.569Z,98891.15
2023-02-01T01:54:21.230Z,98889.90
2023-02-01T01:56:52.265Z,98893.52
2023-02-01T01:59:22.125Z,98890.09
2023-02-01T02:01:50.409Z,98886.66
2023-02-01T02:04:22.016Z,98879.70
2023-02-01T02:07:12.870Z,98878.31
2023-02-01T02:09:45.378Z,98870.90
2023-02-01T02:12:16.206Z,98871.20
2023-02-01T02:14:45.144Z,98871.16
2023-02-01T02:17:35.406Z,98871.52
2023-02-01T02:20:34.562Z,98874.09
2023-02-01T02:23:23.679Z,98871.96
2023-02-01T02:26:07.603Z,98869.77
2023-02-01T02:28:41.884Z,98865.26
2023-02-01T02:31:22.638Z,98861.83
2023-02-01T02:34:03.076Z,98860.36
2023-02-01T02:36:49.926Z,98860.86
2023-02-01T02:39:36.717Z,98857.37
2023-02-01T02:42:42.743Z,98856.00
2023-02-01T02:46:02.031Z,98858.43
2023-02-01T02:48:46.019Z,98859.66
2023-02-01T02:51:40.065Z,98860.87
2023-02-01T02:54:33.829Z,98862.66
2023-02-01T02:57:22.205Z,98860.50
2023-02-01T03:00:09.426Z,98862.98
2023-02-01T03:03:06.193Z,98861.75
2023-02-01T03:05:38.710Z,98862.16
2023-02-01T03:08:46.826Z,98860.11
2023-02-01T03:11:15.332Z,98859.92
2023-02-01T03:14:02.131Z,98860.55
2023-02-01T03:16:50.470Z,98868.88
2023-02-01T03:19:38.696Z,98867.88
2023-02-01T03:22:09.220Z,98864.95
2023-02-01T03:24:45.037Z,98868.59
2023-02-01T03:27:24.536Z,98864.29
2023-02-01T03:30:11.285Z,98857.75
2023-02-01T03:32:59.895Z,98855.84
2023-02-01T03:35:35.004Z,98857.67
2023-02-01T03:38:09.354Z,98860.56
2023-02-01T03:40:40.694Z,98861.13
2023-02-01T03:43:08.741Z,98853.67
2023-02-01T03:45:41.843Z,98857.59
2023-02-01T03:48:10.227Z,98856.86
2023-02-01T03:50:39.797Z,98852.64
2023-02-01T03:53:09.661Z,98853.01
2023-02-01T03:55:37.797Z,98851.69
2023-02-01T03:58:12.934Z,98856.66
2023-02-01T04:00:41.348Z,98855.20
2023-02-01T04:03:09.348Z,98853.13
2023-02-01T04:05:37.528Z,98852.58
2023-02-01T04:08:08.133Z,98853.70
2023-02-01T04:10:38.765Z,98859.30
2023-02-01T04:13:06.851Z,98853.39
2023-02-01T04:15:36.053Z,98853.02
2023-02-01T04:18:04.329Z,98853.42
2023-02-01T04:20:32.683Z,98856.23
2023-02-01T04:23:03.593Z,98861.44
2023-02-01T04:25:32.302Z,98865.52
2023-02-01T04:28:01.071Z,98865.45
2023-02-01T04:30:30.415Z,98868.27
2023-02-01T04:32:58.515Z,98861.55
2023-02-01T04:35:31.034Z,98864.56
2023-02-01T04:38:00.044Z,98861.98
2023-02-01T04:40:29.219Z,98864.90
2023-02-01T04:42:57.476Z,98861.95
2023-02-01T04:45:25.520Z,98862.30
2023-02-01T04:47:54.178Z,98858.14
2023-02-01T04:50:22.756Z,98858.96
2023-02-01T04:52:51.321Z,98859.67
2023-02-01T04:55:19.963Z,98858.95
2023-02-01T04:57:47.991Z,98859.56
2023-02-01T05:00:17.007Z,98859.21
2023-02-01T05:02:45.391Z,98861.02
2023-02-01T05:05:13.726Z,98862.63
2023-02-01T05:07:41.986Z,98858.82
2023-02-01T05:10:10.823Z,98862.55
2023-02-01T05:12:57.873Z,98857.52
2023-02-01T05:15:25.911Z,98859.92
2023-02-01T05:17:54.065Z,98856.63
2023-02-01T05:20:22.463Z,98858.41
2023-02-01T05:22:51.229Z,98860.86
2023-02-01T05:25:50.822Z,98861.15
2023-02-01T05:28:18.930Z,98859.64
2023-02-01T05:30:47.131Z,98858.36
2023-02-01T05:33:15.332Z,98857.17
2023-02-01T05:35:43.528Z,98855.23
2023-02-01T05:38:12.172Z,98849.49
2023-02-01T05:40:40.645Z,98848.41
2023-02-01T05:43:08.862Z,98849.67
2023-02-01T05:45:37.557Z,98851.61
2023-02-01T09:15:54.998Z,98754.15
2023-02-01T09:18:23.270Z,98753.15
2023-02-01T09:20:51.490Z,98750.61
2023-02-01T09:23:21.431Z,98744.31
2023-02-01T09:25:52.543Z,98740.62
2023-02-01T09:28:21.119Z,98738.48
2023-02-01T09:30:49.242Z,98738.11
2023-02-01T09:33:18.710Z,98731.06
2023-02-01T09:35:47.025Z,98727.85
2023-02-01T09:38:15.709Z,98728.67
2023-02-01T09:40:46.264Z,98719.38
2023-02-01T09:43:52.652Z,98709.99
2023-02-01T09:46:23.844Z,98704.42
2023-02-01T09:48:55.038Z,98704.51
2023-02-01T09:51:25.628Z,98698.29
2023-02-01T09:54:18.875Z,98697.96
2023-02-01T09:56:52.106Z,98701.84
2023-02-01T09:59:32.081Z,98702.09
2023-02-01T10:02:00.807Z,98682.45
2023-02-01T10:04:29.853Z,98681.48
2023-02-01T10:06:59.163Z,98681.77
2023-02-01T10:09:33.741Z,98680.38
2023-02-01T10:12:23.804Z,98679.92
2023-02-01T10:15:35.275Z,98691.41
2023-02-01T10:18:25.550Z,98682.22
2023-02-01T10:20:58.872Z,98674.87
2023-02-01T10:23:43.443Z,98672.08
2023-02-01T10:26:40.717Z,98682.84
2023-02-01T10:29:17.135Z,98679.82
2023-02-01T10:31:45.992Z,98675.83
2023-02-01T10:34:19.515Z,98669.75
2023-02-01T10:36:56.565Z,98671.64
2023-02-01T10:39:24.909Z,98667.16
2023-02-01T10:41:53.020Z,98666.16
2023-02-01T10:44:25.235Z,98673.59
2023-02-01T10:46:53.486Z,98670.38
2023-02-01T10:49:43.329Z,98665.77
2023-02-01T10:52:32.655Z,98663.20
2023-02-01T10:55:26.480Z,98663.83
2023-02-01T10:57:56.593Z,98648.52
2023-02-01T11:00:26.790Z,98654.80
2023-02-01T11:02:55.506Z,98646.66
2023-02-01T11:05:24.764Z,98655.73
2023-02-01T11:07:55.969Z,98644.92
2023-02-01T11:10:37.131Z,98641.55
2023-02-01T11:13:05.491Z,98646.65
2023-02-01T11:15:34.193Z,98655.98
2023-02-01T11:18:15.697Z,98653.35
2023-02-01T11:20:44.194Z,98646.88
2023-02-01T11:23:15.675Z,98641.55
2023-02-01T11:25:58.477Z,98656.75
2023-02-01T11:28:34.555Z,98648.27
2023-02-01T11:31:05.848Z,98645.06
2023-02-01T11:33:36.260Z,98643.77
2023-02-01T11:36:22.075Z,98641.20
2023-02-01T11:39:10.385Z,98633.45
2023-02-01T11:41:45.853Z,98628.81
2023-02-01T11:44:22.520Z,98623.02
2023-02-01T11:46:50.672Z,98623.46
2023-02-01T11:49:26.706Z,98627.17
2023-02-01T11:52:39.040Z,98619.76
2023-02-01T11:55:34.777Z,98623.04
2023-02-01T11:58:28.466Z,98615.83
2023-02-01T12:01:27.959Z,98620.73
2023-02-01T12:04:02.005Z,98617.64
2023-02-01T12:06:39.199Z,98615.38
2023-02-01T12:09:27.333Z,98607.89
2023-02-01T12:12:07.779Z,98610.00
2023-02-01T12:15:16.383Z,98606.41
2023-02-01T12:17:57.089Z,98608.92
2023-02-01T12:20:33.903Z,98607.98
2023-02-01T12:23:23.227Z,98603.81
2023-02-01T12:25:54.665Z,98601.31
2023-02-01T12:28:58.079Z,98593.42
2023-02-01T12:31:54.275Z,98594.09
2023-02-01T12:34:52.136Z,98597.84
2023-02-01T12:37:37.633Z,98596.70
2023-02-01T12:40:20.671Z,98594.77
2023-02-01T12:43:11.590Z,98593.77
2023-02-01T12:45:50.948Z,98592.20
2023-02-01T12:48:31.231Z,98591.20
2023-02-01T12:51:10.449Z,98591.30
2023-02-01T12:53:46.998Z,98590.31
2023-02-01T12:56:22.333Z,98586.92
2023-02-01T12:59:01.876Z,98587.09
2023-02-01T13:01:40.542Z,98587.40
2023-02-01T13:04:20.316Z,98590.09
2023-02-01T13:07:15.535Z,98587.92
2023-02-01T13:09:52.429Z,98588.50
2023-02-01T13:12:32.255Z,98589.88
2023-02-01T13:15:22.984Z,98584.92
2023-02-01T13:17:54.697Z,98585.67
2023-02-01T13:20:28.171Z,98584.96
2023-02-01T13:23:00.799Z,98587.17
2023-02-01T13:25:32.053Z,98584.98
2023-02-01T13:28:05.329Z,98583.11
2023-02-01T13:30:48.873Z,98584.68
2023-02-01T13:33:52.404Z,98580.78
2023-02-01T13:36:32.708Z,98578.54
2023-02-01T13:39:34.600Z,98574.54
2023-02-01T13:42:04.461Z,98577.48
2023-02-01T17:45:40.711Z,98663.95
2023-02-01T17:48:08.911Z,98663.58
2023-02-01T17:50:43.418Z,98669.95
2023-02-01T17:53:15.311Z,98666.31
2023-02-01T17:55:45.336Z,98660.77
2023-02-01T17:58:14.937Z,98662.21
2023-02-01T18:00:43.990Z,98659.11
2023-02-01T18:03:30.756Z,98660.27
2023-02-01T18:05:59.595Z,98659.98
2023-02-01T18:08:29.656Z,98659.04
2023-02-01T18:11:00.928Z,98659.41
2023-02-01T18:13:31.414Z,98659.48
2023-02-01T18:16:00.199Z,98660.98
2023-02-01T18:18:31.411Z,98663.40
2023-02-01T18:20:59.831Z,98663.38
2023-02-01T18:23:28.286Z,98657.14
2023-02-01T18:25:56.355Z,98661.40
2023-02-01T18:28:24.663Z,98662.39
2023-02-01T18:30:52.968Z,98666.70
2023-02-01T18:33:22.417Z,98668.86
2023-02-01T18:35:50.761Z,98669.92
2023-02-01T18:38:19.100Z,98669.90
2023-02-01T18:41:01.990Z,98670.98
2023-02-01T18:43:30.207Z,98668.83
2023-02-01T18:45:59.452Z,98671.84
2023-02-01T18:48:28.190Z,98674.88
2023-02-01T18:50:58.513Z,98675.73
2023-02-01T18:53:27.695Z,98674.62
2023-02-01T18:55:59.346Z,98670.88
2023-02-01T18:58:27.563Z,98673.45
2023-02-01T19:00:57.902Z,98673.82
2023-02-01T19:03:28.892Z,98668.96
2023-02-01T19:05:57.479Z,98667.77
2023-02-01T19:08:27.398Z,98673.56
2023-02-01T19:10:55.472Z,98668.80
2023-02-01T19:13:26.123Z,98670.15
2023-02-01T19:15:57.041Z,98673.45
2023-02-01T19:18:25.279Z,98663.66
2023-02-01T19:20:55.122Z,98662.19
2023-02-01T19:23:23.684Z,98667.46
2023-02-01T19:25:52.458Z,98667.16
2023-02-01T19:28:20.860Z,98663.77
2023-02-01T19:30:49.285Z,98668.22
2023-02-01T19:33:17.672Z,98662.87
2023-02-01T19:35:45.970Z,98660.23
2023-02-01T19:38:14.896Z,98662.02
2023-02-01T19:40:43.617Z,98662.07
2023-02-01T19:43:12.255Z,98662.00
2023-02-01T19:45:40.416Z,98658.13
2023-02-01T19:48:13.238Z,98659.75
2023-02-01T19:50:41.551Z,98657.42
2023-02-01T19:53:09.698Z,98660.63
2023-02-01T19:55:38.263Z,98662.05
2023-02-01T19:58:06.490Z,98659.85
2023-02-01T20:00:34.708Z,98650.73
2023-02-01T20:03:03.035Z,98655.05
2023-02-01T20:05:31.229Z,98654.80
2023-02-01T20:08:00.744Z,98653.80
2023-02-01T20:10:29.824Z,98653.95
2023-02-01T20:12:58.316Z,98656.88
2023-02-01T20:15:28.650Z,98656.85
2023-02-01T20:17:57.151Z,98655.93
2023-02-01T20:20:26.369Z,98655.88
2023-02-01T20:22:54.338Z,98653.02
2023-02-01T20:25:24.111Z,98655.07
2023-02-01T20:27:53.311Z,98656.34
2023-02-01T20:30:24.869Z,98657.60
2023-02-01T20:32:53.603Z,98660.06
2023-02-01T20:35:22.752Z,98656.14
2023-02-01T20:37:52.054Z,98655.81
2023-02-01T20:40:20.110Z,98655.52
2023-02-01T20:42:48.949Z,98656.23
2023-02-01T20:45:17.599Z,98657.63
2023-02-01T20:47:52.830Z,98655.76
2023-02-01T20:50:21.139Z,98657.73
2023-02-01T20:52:49.876Z,98656.84
2023-02-01T20:55:18.035Z,98657.73
2023-02-01T20:57:46.302Z,98658.55
2023-02-01T21:00:15.666Z,98658.46
2023-02-01T21:02:43.901Z,98663.20
2023-02-01T21:05:12.135Z,98662.66
2023-02-01T21:07:40.763Z,98663.73
2023-02-01T21:10:10.441Z,98664.67
2023-02-01T21:12:40.186Z,98661.70
2023-02-01T21:15:09.288Z,98663.24
2023-02-01T21:17:39.518Z,98664.42
2023-02-01T21:20:09.348Z,98668.76
2023-02-01T21:22:37.698Z,98666.35
2023-02-01T21:25:06.483Z,98669.00
2023-02-01T21:27:35.067Z,98670.20
2023-02-01T21:30:06.360Z,98667.94
2023-02-01T21:32:35.434Z,98673.95
2023-02-01T21:35:05.273Z,98673.30
2023-02-01T21:37:34.522Z,98671.85
2023-02-01T21:40:02.593Z,98670.31
2023-02-01T21:42:31.128Z,98671.05
2023-02-01T21:44:59.683Z,98672.50
2023-02-01T21:47:28.269Z,98670.67
2023-02-01T21:49:56.508Z,98669.63
2023-02-01T21:52:25.592Z,98669.46
2023-02-01T21:54:59.562Z,98669.99
2023-02-01T21:57:28.778Z,98668.93
2023-02-01T21:59:59.027Z,98663.30
2023-02-01T22:02:27.353Z,98665.64
2023-02-01T22:04:57.690Z,98666.91
2023-02-01T22:07:26.089Z,98669.16
2023-02-01T22:09:54.166Z,98667.77
2023-02-01T22:12:23.233Z,98666.73
2023-02-01T22:14:51.545Z,98670.02
2023-02-01T22:17:20.077Z,98668.68
2023-02-01T22:19:48.029Z,98670.34
2023-02-01T22:22:16.831Z,98672.88
2023-02-01T22:24:45.534Z,98666.85
2023-02-01T22:27:14.780Z,98668.67
2023-02-01T22:29:43.583Z,98669.55
2023-02-01T22:32:13.343Z,98667.80
2023-02-01T22:34:41.588Z,98666.92
2023-02-01T22:37:11.173Z,98667.27
2023-02-01T22:39:40.771Z,98662.52
2023-02-01T22:42:08.852Z,98660.14
2023-02-01T22:44:36.864Z,98666.27
2023-02-01T22:47:04.974Z,98661.16
2023-02-01T22:49:33.383Z,98662.05
2023-02-01T22:52:01.981Z,98662.98
2023-02-01T22:54:30.424Z,98665.48
2023-02-01T22:57:00.276Z,98665.83
2023-02-01T22:59:28.554Z,98668.85
2023-02-01T23:01:56.694Z,98669.38
2023-02-01T23:04:25.580Z,98671.88
2023-02-01T23:06:54.016Z,98669.69
2023-02-01T23:09:25.787Z,98671.65
2023-02-01T23:11:54.572Z,98674.59
2023-02-01T23:14:22.533Z,98677.30
2023-02-01T23:16:51.322Z,98677.21
2023-02-01T23:19:20.998Z,98672.29
2023-02-01T23:21:49.601Z,98672.23
2023-02-01T23:24:17.556Z,98669.51
2023-02-01T23:26:45.875Z,98665.97
2023-02-01T23:29:18.458Z,98667.67
2023-02-01T23:31:46.741Z,98671.42
2023-02-01T23:34:14.755Z,98669.26
2023-02-01T23:36:43.295Z,98674.93
2023-02-01T23:39:11.196Z,98673.95
2023-02-01T23:41:39.180Z,98670.94
2023-02-01T23:44:07.689Z,98670.92
2023-02-01T23:46:41.568Z,98669.55
2023-02-01T23:49:10.203Z,98664.46
2023-02-01T23:51:38.211Z,98666.80
2023-02-01T23:54:07.193Z,98669.41
2023-02-01T23:56:37.684Z,98667.08
2023-02-01T23:59:07.446Z,98669.17
